createdAt,value
2022-12-08T00:01:10.713Z,7.60
2022-12-08T00:03:38.384Z,8.80
2022-12-08T00:06:24.884Z,8.25
2022-12-08T00:09:10.461Z,9.05
2022-12-08T00:11:37.044Z,8.10
2022-12-08T00:14:03.565Z,7.38
2022-12-08T00:16:30.084Z,7.53
2022-12-08T00:18:56.598Z,7.32
2022-12-08T00:21:23.081Z,7.60
2022-12-08T00:23:49.558Z,7.22
2022-12-08T00:26:16.139Z,7.88
2022-12-08T00:28:42.626Z,7.45
2022-12-08T00:31:11.094Z,7.65
2022-12-08T00:33:37.937Z,8.35
2022-12-08T00:36:12.226Z,8.32
2022-12-08T00:38:39.765Z,7.93
2022-12-08T00:41:14.120Z,7.93
2022-12-08T00:43:40.703Z,7.13
2022-12-08T00:46:07.605Z,6.95
2022-12-08T00:48:34.373Z,7.55
2022-12-08T00:51:01.023Z,6.85
2022-12-08T00:53:27.573Z,7.65
2022-12-08T00:55:54.046Z,6.65
2022-12-08T00:58:20.548Z,7.60
2022-12-08T01:00:47.097Z,7.38
2022-12-08T01:03:13.850Z,6.65
2022-12-08T01:05:40.360Z,7.03
2022-12-08T01:08:08.256Z,7.43
2022-12-08T01:10:36.577Z,8.60
2022-12-08T01:13:03.903Z,8.52
2022-12-08T01:15:30.424Z,7.68
2022-12-08T01:17:56.909Z,7.00
2022-12-08T01:20:23.498Z,6.22
2022-12-08T01:22:49.966Z,8.75
2022-12-08T01:25:16.454Z,9.73
2022-12-08T01:27:42.909Z,8.60
2022-12-08T01:30:09.999Z,8.27
2022-12-08T01:32:36.835Z,7.70
2022-12-08T01:35:03.765Z,9.35
2022-12-08T01:37:30.306Z,9.70
2022-12-08T01:39:56.806Z,9.50
2022-12-08T01:42:23.620Z,10.13
2022-12-08T01:44:55.135Z,8.95
2022-12-08T01:47:24.887Z,10.90
2022-12-08T01:49:51.459Z,11.18
2022-12-08T01:52:29.142Z,11.50
2022-12-08T01:55:01.178Z,9.32
2022-12-08T02:00:05.438Z,7.13
2022-12-08T02:02:58.796Z,7.30
2022-12-08T02:05:29.683Z,10.30
2022-12-08T02:07:58.728Z,11.25
2022-12-08T02:10:29.331Z,9.45
2022-12-08T02:12:57.893Z,10.02
2022-12-08T02:15:46.124Z,10.13
2022-12-08T02:18:29.477Z,7.72
2022-12-08T02:21:37.593Z,9.95
2022-12-08T02:24:16.483Z,9.68
2022-12-08T02:27:04.189Z,8.23
2022-12-08T02:29:38.111Z,8.18
2022-12-08T02:32:22.830Z,8.27
2022-12-08T02:35:34.942Z,7.88
2022-12-08T02:38:20.316Z,6.95
2022-12-08T02:40:58.948Z,6.70
2022-12-08T02:43:37.773Z,6.47
2022-12-08T02:46:11.119Z,6.70
2022-12-08T02:48:37.784Z,6.78
2022-12-08T02:51:04.591Z,8.15
2022-12-08T02:53:34.424Z,8.25
2022-12-08T02:56:27.292Z,7.32
2022-12-08T02:59:06.889Z,6.88
2022-12-08T03:01:48.634Z,7.05
2022-12-08T03:04:31.045Z,6.38
2022-12-08T03:07:18.469Z,6.28
2022-12-08T03:09:54.898Z,6.13
2022-12-08T03:12:33.532Z,7.38
2022-12-08T03:15:06.927Z,8.05
2022-12-08T03:17:34.209Z,8.35
2022-12-08T03:20:08.987Z,7.68
2022-12-08T03:22:36.077Z,5.88
2022-12-08T03:25:02.705Z,7.32
2022-12-08T03:27:31.388Z,7.88
2022-12-08T03:29:59.859Z,7.55
2022-12-08T03:32:52.104Z,6.60
2022-12-08T03:35:24.620Z,6.32
2022-12-08T03:37:51.119Z,8.07
2022-12-08T03:40:20.069Z,7.10
2022-12-08T03:42:46.583Z,7.43
2022-12-08T03:45:13.062Z,8.85
2022-12-08T03:47:39.683Z,5.88
2022-12-08T03:50:06.932Z,6.95
2022-12-08T03:52:33.607Z,7.82
2022-12-08T03:55:00.123Z,6.00
2022-12-08T03:57:26.608Z,5.93
2022-12-08T03:59:53.069Z,5.53
2022-12-08T04:02:19.556Z,4.55
2022-12-08T04:04:46.109Z,6.10
2022-12-08T04:07:12.597Z,6.72
2022-12-08T04:09:39.274Z,6.10
2022-12-08T04:12:05.957Z,5.72
2022-12-08T04:14:32.443Z,5.88
2022-12-08T04:16:58.924Z,5.15
2022-12-08T04:19:25.411Z,5.55
2022-12-08T04:21:51.900Z,5.78
2022-12-08T04:24:18.440Z,5.50
2022-12-08T04:26:45.792Z,4.68
2022-12-08T04:29:12.347Z,5.93
2022-12-08T04:31:38.865Z,6.18
2022-12-08T04:34:05.392Z,4.70
2022-12-08T04:36:31.894Z,6.13
2022-12-08T04:38:58.355Z,6.68
2022-12-08T04:41:24.835Z,4.97
2022-12-08T04:43:51.315Z,5.18
2022-12-08T04:46:17.886Z,5.63
2022-12-08T04:48:46.166Z,6.82
2022-12-08T04:51:17.977Z,5.97
2022-12-08T04:53:46.942Z,5.32
2022-12-08T04:56:15.561Z,6.28
2022-12-08T04:58:42.081Z,4.00
2022-12-08T05:01:08.670Z,5.25
2022-12-08T05:03:35.317Z,6.32
2022-12-08T05:06:02.123Z,5.82
2022-12-08T05:08:29.422Z,6.28
2022-12-08T05:11:07.616Z,6.03
2022-12-08T05:13:34.101Z,6.45
2022-12-08T05:16:09.026Z,6.03
2022-12-08T05:18:36.180Z,5.40
2022-12-08T05:21:02.783Z,6.38
2022-12-08T05:23:29.668Z,6.85
2022-12-08T05:25:56.157Z,5.25
2022-12-08T05:31:10.586Z,7.13
2022-12-08T05:33:37.196Z,6.82
2022-12-08T05:36:03.729Z,7.32
2022-12-08T05:38:30.196Z,8.23
2022-12-08T05:40:56.753Z,7.43
2022-12-08T05:43:23.210Z,6.70
2022-12-08T05:45:50.333Z,8.68
2022-12-08T05:48:16.891Z,7.38
2022-12-08T05:50:48.898Z,8.00
2022-12-08T05:55:42.732Z,7.18
2022-12-08T05:58:13.629Z,11.73
2022-12-08T06:00:40.895Z,6.95
2022-12-08T06:03:07.559Z,8.50
2022-12-08T06:05:34.883Z,8.75
2022-12-08T06:08:01.952Z,8.15
2022-12-08T06:10:28.778Z,7.53
2022-12-08T06:12:55.529Z,10.15
2022-12-08T06:15:22.118Z,8.10
2022-12-08T06:17:48.659Z,8.00
2022-12-08T06:20:15.182Z,8.13
2022-12-08T06:22:41.670Z,10.05
2022-12-08T06:25:10.062Z,9.75
2022-12-08T06:27:36.952Z,9.20
2022-12-08T06:30:04.508Z,8.90
2022-12-08T06:32:31.261Z,7.00
2022-12-08T06:34:57.788Z,6.90
2022-12-08T06:37:24.269Z,7.53
2022-12-08T06:39:51.679Z,7.60
2022-12-08T06:42:36.722Z,7.50
2022-12-08T06:45:03.715Z,7.90
2022-12-08T06:47:30.200Z,7.97
2022-12-08T06:49:57.024Z,7.28
2022-12-08T06:52:23.496Z,8.38
2022-12-08T06:54:50.234Z,10.25
2022-12-08T06:57:18.359Z,9.00
2022-12-08T06:59:45.105Z,8.68
2022-12-08T07:02:11.698Z,9.35
2022-12-08T07:04:38.237Z,9.30
2022-12-08T07:07:04.695Z,9.00
2022-12-08T07:09:31.161Z,9.93
2022-12-08T07:11:57.626Z,9.95
2022-12-08T07:14:24.891Z,9.10
2022-12-08T07:16:52.299Z,9.43
2022-12-08T07:19:19.281Z,9.50
2022-12-08T07:21:45.811Z,8.55
2022-12-08T07:24:12.662Z,9.10
2022-12-08T07:26:39.878Z,8.52
2022-12-08T07:29:06.436Z,8.93
2022-12-08T07:31:33.000Z,8.18
2022-12-08T07:33:59.553Z,8.55
2022-12-08T07:36:26.323Z,8.82
2022-12-08T07:38:53.655Z,8.82
2022-12-08T07:41:23.710Z,8.00
2022-12-08T07:43:50.658Z,9.20
2022-12-08T07:46:19.663Z,7.68
2022-12-08T07:48:46.842Z,6.28
2022-12-08T07:51:15.023Z,8.63
2022-12-08T07:53:46.209Z,8.02
2022-12-08T07:56:16.477Z,6.65
2022-12-08T07:58:45.740Z,7.32
2022-12-08T08:01:38.965Z,7.65
2022-12-08T08:04:06.002Z,7.85
2022-12-08T08:06:34.170Z,8.52
2022-12-08T08:09:00.797Z,7.90
2022-12-08T08:11:27.421Z,7.88
2022-12-08T08:13:53.932Z,8.07
2022-12-08T08:16:21.294Z,7.55
2022-12-08T08:18:50.316Z,8.02
2022-12-08T08:24:04.691Z,8.10
2022-12-08T08:26:31.283Z,9.27
2022-12-08T08:28:57.730Z,7.05
2022-12-08T08:31:25.866Z,8.13
2022-12-08T08:33:53.013Z,9.95
2022-12-08T08:36:19.524Z,8.57
2022-12-08T08:38:46.057Z,9.95
2022-12-08T08:41:12.725Z,9.75
2022-12-08T08:43:39.403Z,8.52
2022-12-08T08:46:06.972Z,9.02
2022-12-08T08:48:33.666Z,9.57
2022-12-08T08:51:08.520Z,9.70
2022-12-08T08:53:35.304Z,10.25
2022-12-08T08:56:03.041Z,12.82
2022-12-08T08:58:29.696Z,10.48
2022-12-08T09:00:56.405Z,10.50
2022-12-08T09:03:22.964Z,10.20
2022-12-08T09:05:50.439Z,6.88
2022-12-08T09:08:17.067Z,8.55
2022-12-08T09:10:43.611Z,9.02
2022-12-08T09:13:10.166Z,7.82
2022-12-08T09:15:36.664Z,10.48
2022-12-08T09:18:03.431Z,7.18
2022-12-08T09:20:29.896Z,9.60
2022-12-08T09:22:56.375Z,10.50
2022-12-08T09:25:22.904Z,11.25
2022-12-08T09:27:49.417Z,8.45
2022-12-08T09:30:16.094Z,10.05
2022-12-08T09:32:42.578Z,9.13
2022-12-08T09:35:09.143Z,9.73
2022-12-08T09:37:35.692Z,10.18
2022-12-08T09:40:02.388Z,8.82
2022-12-08T09:42:51.211Z,8.57
2022-12-08T09:45:19.163Z,7.97
2022-12-08T09:48:19.254Z,8.57
2022-12-08T09:50:52.567Z,9.32
2022-12-08T09:53:35.998Z,7.97
2022-12-08T09:56:27.512Z,8.30
2022-12-08T09:58:57.760Z,8.02
2022-12-08T10:01:29.692Z,9.60
2022-12-08T10:06:41.081Z,7.47
2022-12-08T10:09:44.427Z,7.35
2022-12-08T10:12:13.946Z,6.97
2022-12-08T10:14:45.553Z,7.47
2022-12-08T10:17:27.691Z,8.18
2022-12-08T10:19:59.855Z,6.43
2022-12-08T10:22:32.327Z,7.45
2022-12-08T10:25:05.238Z,6.65
2022-12-08T10:27:35.765Z,7.13
2022-12-08T10:30:09.568Z,6.55
2022-12-08T10:32:36.119Z,7.18
2022-12-08T10:35:12.080Z,6.55
2022-12-08T10:37:39.379Z,7.72
2022-12-08T10:40:08.905Z,7.32
2022-12-08T10:42:42.769Z,7.32
2022-12-08T10:45:09.272Z,6.50
2022-12-08T10:47:39.078Z,6.05
2022-12-08T10:50:07.361Z,7.53
2022-12-08T10:52:39.037Z,7.93
2022-12-08T10:55:17.782Z,6.95
2022-12-08T10:57:45.154Z,7.07
2022-12-08T11:00:18.292Z,6.70
2022-12-08T11:03:00.629Z,7.10
2022-12-08T11:05:35.728Z,7.65
2022-12-08T11:08:04.605Z,9.80
2022-12-08T11:10:37.265Z,5.22
2022-12-08T11:13:06.970Z,8.70
2022-12-08T11:15:37.767Z,7.93
2022-12-08T11:18:20.347Z,8.90
2022-12-08T11:20:46.869Z,8.02
2022-12-08T11:23:23.447Z,6.43
2022-12-08T11:25:51.602Z,6.28
2022-12-08T11:28:23.541Z,7.03
2022-12-08T11:30:57.608Z,6.88
2022-12-08T11:33:27.055Z,8.15
2022-12-08T11:36:09.664Z,6.97
2022-12-08T11:38:41.599Z,7.10
2022-12-08T11:41:16.498Z,5.97
2022-12-08T11:44:09.572Z,6.35
2022-12-08T11:46:36.113Z,6.80
2022-12-08T11:49:07.214Z,7.82
2022-12-08T11:51:48.114Z,6.27
2022-12-08T11:54:23.872Z,5.72
2022-12-08T11:56:54.542Z,6.05
2022-12-08T11:59:49.474Z,6.30
2022-12-08T12:02:20.341Z,6.53
2022-12-08T12:04:59.604Z,6.63
2022-12-08T12:07:50.892Z,6.30
2022-12-08T12:10:26.186Z,7.45
2022-12-08T12:13:23.612Z,5.78
2022-12-08T12:16:21.164Z,6.55
2022-12-08T12:18:50.077Z,5.68
2022-12-08T12:21:22.633Z,5.85
2022-12-08T12:23:56.094Z,5.85
2022-12-08T12:26:25.752Z,6.20
2022-12-08T12:29:13.528Z,6.72
2022-12-08T12:31:48.622Z,6.75
2022-12-08T12:34:23.663Z,6.10
2022-12-08T12:36:56.528Z,6.85
2022-12-08T12:39:27.292Z,6.03
2022-12-08T12:41:58.281Z,5.93
2022-12-08T12:44:37.768Z,6.47
2022-12-08T12:47:11.004Z,6.28
2022-12-08T12:49:40.280Z,5.75
2022-12-08T12:52:09.789Z,5.65
2022-12-08T12:54:36.385Z,5.45
2022-12-08T12:57:05.671Z,5.30
2022-12-08T12:59:39.880Z,4.90
2022-12-08T13:02:19.174Z,5.55
2022-12-08T13:05:03.276Z,6.05
2022-12-08T13:07:44.969Z,6.25
2022-12-08T13:10:17.528Z,6.35
2022-12-08T13:12:46.288Z,5.10
2022-12-08T13:15:22.200Z,5.53
2022-12-08T13:17:49.309Z,5.18
2022-12-08T13:20:24.796Z,5.13
2022-12-08T13:22:54.221Z,5.07
2022-12-08T13:25:39.246Z,5.88
2022-12-08T13:28:27.174Z,4.75
2022-12-08T13:31:01.479Z,5.15
2022-12-08T13:33:33.800Z,4.30
2022-12-08T13:36:03.236Z,4.55
2022-12-08T13:38:33.905Z,5.38
2022-12-08T13:41:02.908Z,4.80
2022-12-08T13:43:51.301Z,3.63
2022-12-08T13:56:59.418Z,5.03
2022-12-08T13:58:44.646Z,5.90
2022-12-08T14:01:22.695Z,6.07
2022-12-08T14:04:33.787Z,4.32
2022-12-08T14:06:48.541Z,5.85
2022-12-08T14:09:22.287Z,6.10
2022-12-08T14:12:19.502Z,4.97
2022-12-08T14:15:04.974Z,5.90
2022-12-08T14:17:32.586Z,5.05
2022-12-08T14:20:01.281Z,5.22
2022-12-08T14:22:36.313Z,6.15
2022-12-08T14:25:04.734Z,5.93
2022-12-08T14:27:36.837Z,5.88
2022-12-08T14:30:13.597Z,5.68
2022-12-08T14:32:49.218Z,5.97
2022-12-08T14:35:19.731Z,5.95
2022-12-08T14:37:52.809Z,6.38
2022-12-08T14:40:23.081Z,7.10
2022-12-08T14:42:53.270Z,5.25
2022-12-08T14:45:20.836Z,5.45
2022-12-08T14:47:48.486Z,5.10
2022-12-08T14:50:55.629Z,5.45
2022-12-08T14:53:22.544Z,5.28
2022-12-08T14:55:49.871Z,6.18
2022-12-08T14:58:29.117Z,5.75
2022-12-08T15:00:58.453Z,6.97
2022-12-08T15:03:31.006Z,5.97
2022-12-08T15:06:05.003Z,6.63
2022-12-08T15:08:32.659Z,5.88
2022-12-08T15:11:27.329Z,6.28
2022-12-08T15:13:54.521Z,6.25
2022-12-08T15:16:26.011Z,6.25
2022-12-08T15:19:16.311Z,6.38
2022-12-08T15:21:44.675Z,6.10
2022-12-08T15:24:12.460Z,5.60
2022-12-08T15:26:42.392Z,6.40
2022-12-08T15:29:22.097Z,6.32
2022-12-08T15:31:49.408Z,6.00
2022-12-08T15:34:16.012Z,5.75
2022-12-08T15:36:43.016Z,5.43
2022-12-08T15:39:22.031Z,5.88
2022-12-08T15:41:48.526Z,6.50
2022-12-08T15:44:15.030Z,6.22
2022-12-08T15:46:41.590Z,4.90
2022-12-08T15:49:17.106Z,5.85
2022-12-08T15:51:43.621Z,5.82
2022-12-08T15:54:10.251Z,5.30
2022-12-08T15:57:10.470Z,5.10
2022-12-08T15:59:31.074Z,5.20
2022-12-08T16:01:57.660Z,6.97
2022-12-08T16:07:30.095Z,5.32
2022-12-08T16:09:57.229Z,6.03
2022-12-08T16:18:26.731Z,6.20
2022-12-08T16:23:44.697Z,5.70
2022-12-08T16:26:44.397Z,6.07
2022-12-08T16:29:05.310Z,5.95
2022-12-08T16:31:32.412Z,5.47
2022-12-08T16:33:59.062Z,6.15
2022-12-08T16:36:25.560Z,6.10
2022-12-08T16:38:52.322Z,5.22
2022-12-08T16:41:37.550Z,6.57
2022-12-08T16:44:06.113Z,4.85
2022-12-08T16:46:33.534Z,6.20
2022-12-08T16:49:00.193Z,4.80
2022-12-08T16:51:27.542Z,5.82
2022-12-08T16:53:55.483Z,6.18
2022-12-08T16:56:27.533Z,5.07
2022-12-08T16:58:58.605Z,4.85
2022-12-08T17:01:25.236Z,4.88
2022-12-08T17:04:22.637Z,5.13
2022-12-08T17:06:38.319Z,4.93
2022-12-08T17:09:05.120Z,5.18
2022-12-08T17:11:37.465Z,5.32
2022-12-08T17:14:09.054Z,4.65
2022-12-08T17:16:35.645Z,5.25
2022-12-08T17:19:02.298Z,4.80
2022-12-08T17:21:28.773Z,5.38
2022-12-08T17:23:55.335Z,4.90
2022-12-08T17:26:21.838Z,4.38
2022-12-08T17:29:00.428Z,4.97
2022-12-08T17:31:29.826Z,4.90
2022-12-08T17:34:08.170Z,4.40
2022-12-08T17:36:34.711Z,4.60
2022-12-08T17:39:01.819Z,3.83
2022-12-08T17:41:28.788Z,4.70
2022-12-08T17:43:55.870Z,5.57
2022-12-08T17:46:22.639Z,5.90
2022-12-08T17:48:49.183Z,5.18
2022-12-08T17:51:16.326Z,4.90
2022-12-08T17:53:43.004Z,5.57
2022-12-08T17:56:20.883Z,4.57
2022-12-08T17:58:52.838Z,4.88
2022-12-08T18:01:22.609Z,4.88
2022-12-08T18:03:49.682Z,4.32
2022-12-08T18:06:17.551Z,5.90
2022-12-08T18:08:44.112Z,4.57
2022-12-08T18:11:13.719Z,4.60
2022-12-08T18:13:40.330Z,5.15
2022-12-08T18:16:07.012Z,4.50
2022-12-08T18:18:33.516Z,6.22
2022-12-08T18:21:00.166Z,4.68
2022-12-08T18:23:26.630Z,5.53
2022-12-08T18:25:53.190Z,4.60
2022-12-08T18:28:19.651Z,4.70
2022-12-08T18:30:46.236Z,4.78
2022-12-08T18:33:12.779Z,5.07
2022-12-08T18:35:40.110Z,4.97
2022-12-08T18:38:06.727Z,5.10
2022-12-08T18:40:33.497Z,4.30
2022-12-08T18:43:00.071Z,4.50
2022-12-08T18:45:26.649Z,4.13
2022-12-08T18:47:53.252Z,4.05
2022-12-08T18:50:19.813Z,5.40
2022-12-08T18:52:46.824Z,5.20
2022-12-08T18:55:14.717Z,5.05
2022-12-08T18:57:43.101Z,4.22
2022-12-08T19:00:14.419Z,6.38
2022-12-08T19:02:41.749Z,5.22
2022-12-08T19:05:09.942Z,5.25
2022-12-08T19:07:36.840Z,4.80
2022-12-08T19:10:04.766Z,5.00
2022-12-08T19:12:31.578Z,5.60
2022-12-08T19:14:58.064Z,5.75
2022-12-08T19:17:25.845Z,5.38
2022-12-08T19:19:52.380Z,4.97
2022-12-08T19:22:18.944Z,5.57
2022-12-08T19:24:45.571Z,5.25
2022-12-08T19:27:12.141Z,5.25
2022-12-08T19:29:38.649Z,6.28
2022-12-08T19:32:05.207Z,4.72
2022-12-08T19:34:31.808Z,6.38
2022-12-08T19:36:58.321Z,5.30
2022-12-08T19:39:43.557Z,5.18
2022-12-08T19:42:36.686Z,5.45
2022-12-08T19:45:11.828Z,6.05
2022-12-08T19:47:39.244Z,5.25
2022-12-08T19:50:27.548Z,5.47
2022-12-08T19:52:54.803Z,5.53
2022-12-08T19:55:23.458Z,5.80
2022-12-08T19:57:51.203Z,5.45
2022-12-08T20:00:19.226Z,6.00
2022-12-08T20:02:46.338Z,5.05
2022-12-08T20:05:13.260Z,5.80
2022-12-08T20:07:40.081Z,5.32
2022-12-08T20:10:24.481Z,5.95
2022-12-08T20:12:51.192Z,5.80
2022-12-08T20:15:17.790Z,4.72
2022-12-08T20:17:44.319Z,5.88
2022-12-08T20:20:13.373Z,5.63
2022-12-08T20:22:40.467Z,6.20
2022-12-08T20:25:07.735Z,4.85
2022-12-08T20:27:34.299Z,6.20
2022-12-08T20:30:00.812Z,4.72
2022-12-08T20:32:27.333Z,6.63
2022-12-08T20:34:53.840Z,5.30
2022-12-08T20:37:20.328Z,5.65
2022-12-08T20:39:46.841Z,6.40
2022-12-08T20:42:13.716Z,6.10
2022-12-08T20:44:44.069Z,5.32
2022-12-08T20:47:11.904Z,5.97
2022-12-08T20:49:38.946Z,6.30
2022-12-08T20:52:05.846Z,6.00
2022-12-08T20:54:32.799Z,6.05
2022-12-08T20:56:59.900Z,6.07
2022-12-08T20:59:26.957Z,5.95
2022-12-08T21:01:54.118Z,6.93
2022-12-08T21:04:21.273Z,5.97
2022-12-08T21:06:48.342Z,5.65
2022-12-08T21:09:15.119Z,6.53
2022-12-08T21:11:41.867Z,6.63
2022-12-08T21:14:08.547Z,7.05
2022-12-08T21:16:35.290Z,5.90
2022-12-08T21:19:02.050Z,5.65
2022-12-08T21:21:28.810Z,6.05
2022-12-08T21:23:55.336Z,6.30
2022-12-08T21:26:25.822Z,6.95
2022-12-08T21:28:54.715Z,5.15
2022-12-08T21:31:22.322Z,7.00
2022-12-08T21:33:49.255Z,5.80
2022-12-08T21:36:19.076Z,6.20
2022-12-08T21:38:47.671Z,5.53
2022-12-08T21:41:40.527Z,6.18
2022-12-08T21:44:12.680Z,7.40
2022-12-08T21:49:06.367Z,5.93
2022-12-08T21:51:35.088Z,4.65
2022-12-08T21:54:01.707Z,5.85
2022-12-08T21:56:28.274Z,6.88
2022-12-08T21:58:55.884Z,6.05
2022-12-08T22:01:22.645Z,5.63
2022-12-08T22:03:49.309Z,7.13
2022-12-08T22:06:16.091Z,7.03
2022-12-08T22:08:42.893Z,6.47
2022-12-08T22:11:11.035Z,7.57
2022-12-08T22:13:39.449Z,6.35
2022-12-08T22:16:09.479Z,4.80
2022-12-08T22:18:36.685Z,6.95
2022-12-08T22:21:14.979Z,6.97
2022-12-08T22:23:41.795Z,6.53
2022-12-08T22:26:09.082Z,6.25
2022-12-08T22:28:38.586Z,6.68
2022-12-08T22:31:10.948Z,7.20
2022-12-08T22:33:38.901Z,7.03
2022-12-08T22:36:10.994Z,7.38
2022-12-08T22:38:37.866Z,7.82
2022-12-08T22:41:07.061Z,7.85
2022-12-08T22:43:34.156Z,7.15
2022-12-08T22:46:00.763Z,8.55
2022-12-08T22:48:27.480Z,6.15
2022-12-08T22:51:01.374Z,7.55
2022-12-08T22:53:28.042Z,6.68
2022-12-08T22:55:54.731Z,8.52
2022-12-08T22:58:21.816Z,7.75
2022-12-08T23:00:48.413Z,9.23
2022-12-08T23:03:15.073Z,6.65
2022-12-08T23:05:42.356Z,6.63
2022-12-08T23:08:09.507Z,7.43
2022-12-08T23:10:36.017Z,9.25
2022-12-08T23:13:04.184Z,9.35
2022-12-08T23:15:31.776Z,8.77
2022-12-08T23:17:58.661Z,7.95
2022-12-08T23:20:25.447Z,9.20
2022-12-08T23:22:52.075Z,6.60
2022-12-08T23:25:19.063Z,9.82
2022-12-08T23:27:46.543Z,9.27
2022-12-08T23:30:14.011Z,7.13
2022-12-08T23:32:40.836Z,8.32
2022-12-08T23:35:08.520Z,10.45
2022-12-08T23:37:35.280Z,10.45
2022-12-08T23:40:01.965Z,9.75
2022-12-08T23:42:29.949Z,8.73
2022-12-08T23:44:57.507Z,8.25
2022-12-08T23:47:24.231Z,8.02
2022-12-08T23:49:50.834Z,9.10
2022-12-08T23:52:17.393Z,7.85
2022-12-08T23:54:44.868Z,8.90
2022-12-08T23:57:11.672Z,7.47
2022-12-08T23:59:38.231Z,8.57
